Time;durP1;ratioP1;P1;durP2;ratioP2;P2;SDS_P1;SDS_P2;PMS_P1;PMS_P2;Temp;Humidity;BMP_temperature;BMP_pressure;BME280_temperature;BME280_humidity;BME280_pressure;Samples;Min_cycle;Max_cycle;Signal;HPM_P1;HPM_P2
2022/11/15 00:01:26;;;;;;;19.23;11.68;;;;;;;11.88;60.30;100807.25;4985014;28;114670;-72
2022/11/15 00:04:12;;;;;;;23.33;11.57;;;;;;;11.88;60.48;100799.28;4999474;28;125033;-72
2022/11/15 00:06:57;;;;;;;19.65;10.77;;;;;;;11.91;60.54;100800.09;4996299;28;124885;-72
2022/11/15 00:09:43;;;;;;;21.02;11.40;;;;;;;11.92;60.38;100799.13;5002706;28;117081;-72
2022/11/15 00:12:30;;;;;;;22.15;11.50;;;;;;;11.93;60.46;100803.53;4997034;28;114621;-72
2022/11/15 00:15:16;;;;;;;21.75;11.52;;;;;;;11.96;60.57;100800.69;4986932;28;125285;-72
2022/11/15 00:18:03;;;;;;;18.63;11.07;;;;;;;11.98;60.67;100793.50;5000064;28;124357;-73
2022/11/15 00:20:48;;;;;;;21.50;11.45;;;;;;;11.99;60.68;100793.44;4983645;28;114959;-72
2022/11/15 00:23:34;;;;;;;23.50;11.98;;;;;;;12.01;60.70;100798.66;5001620;28;114796;-72
2022/11/15 00:26:19;;;;;;;21.38;11.30;;;;;;;12.05;60.74;100797.56;4999942;28;125086;-73
2022/11/15 00:29:05;;;;;;;19.83;11.57;;;;;;;12.08;60.98;100789.44;4998616;28;124603;-72
2022/11/15 00:31:50;;;;;;;19.23;11.52;;;;;;;12.11;61.02;100789.31;5001804;28;114946;-72
2022/11/15 00:34:36;;;;;;;20.85;11.23;;;;;;;12.14;60.99;100783.81;4992530;28;114309;-73
2022/11/15 00:37:21;;;;;;;18.77;11.35;;;;;;;12.18;61.23;100780.06;5005809;28;124779;-73
2022/11/15 00:40:08;;;;;;;18.90;11.25;;;;;;;12.22;61.11;100781.63;5003565;28;125942;-72
2022/11/15 00:42:53;;;;;;;18.73;11.45;;;;;;;12.26;61.29;100777.88;5005420;28;115724;-73
2022/11/15 00:45:38;;;;;;;21.90;11.65;;;;;;;12.30;61.23;100781.22;5005244;28;115915;-73
2022/11/15 00:48:24;;;;;;;22.33;11.45;;;;;;;12.33;61.25;100772.22;5002607;28;124649;-73
2022/11/15 00:51:10;;;;;;;20.77;11.38;;;;;;;12.37;61.44;100773.78;5006759;28;124678;-72
2022/11/15 00:53:55;;;;;;;20.90;11.32;;;;;;;12.39;61.19;100778.03;5007735;28;115293;-73
2022/11/15 00:56:41;;;;;;;18.98;11.77;;;;;;;12.41;61.45;100770.00;5004517;28;115231;-72
2022/11/15 00:59:26;;;;;;;19.83;11.35;;;;;;;12.42;61.24;100766.41;5003851;28;124547;-73
2022/11/15 01:02:12;;;;;;;17.38;11.30;;;;;;;12.42;61.22;100772.56;5002950;28;125146;-73
2022/11/15 01:04:57;;;;;;;18.77;11.30;;;;;;;12.43;61.19;100768.13;4987785;28;115100;-72
2022/11/15 01:07:42;;;;;;;18.98;10.90;;;;;;;12.44;61.15;100759.22;5002332;28;114654;-73
2022/11/15 01:10:28;;;;;;;18.25;10.73;;;;;;;12.46;61.27;100762.66;5003229;28;124546;-72
2022/11/15 01:13:13;;;;;;;18.80;10.68;;;;;;;12.46;61.15;100762.66;4997357;28;124500;-72
2022/11/15 01:16:05;;;;;;;19.25;10.93;;;;;;;12.49;61.13;100757.19;5001859;28;115485;-72
2022/11/15 01:18:51;;;;;;;17.23;10.52;;;;;;;12.50;61.27;100753.56;4989892;28;114777;-72
2022/11/15 01:21:36;;;;;;;17.27;11.05;;;;;;;12.52;61.23;100757.00;4998939;28;124563;-72
2022/11/15 01:24:22;;;;;;;17.60;11.05;;;;;;;12.52;61.31;100745.53;5002766;28;125367;-72
2022/11/15 01:27:08;;;;;;;18.42;10.65;;;;;;;12.54;61.25;100748.94;5002869;28;114861;-72
2022/11/15 01:29:53;;;;;;;;;;;;;;;12.54;61.09;100744.47;4990631;28;114658;-72
2022/11/15 01:32:38;;;;;;;21.00;11.02;;;;;;;12.58;61.16;100738.09;5003292;28;124871;-72
2022/11/15 01:35:24;;;;;;;19.10;10.93;;;;;;;12.57;61.04;100744.31;4990311;28;124672;-72
2022/11/15 01:38:09;;;;;;;20.73;10.80;;;;;;;12.59;61.17;100737.13;4995651;28;115875;-73
2022/11/15 01:40:54;;;;;;;16.40;10.38;;;;;;;12.59;61.21;100731.81;4997791;28;115942;-73
2022/11/15 01:43:40;;;;;;;18.08;11.50;;;;;;;12.60;61.37;100733.53;4999300;28;125243;-72
2022/11/15 01:46:28;;;;;;;18.20;11.43;;;;;;;12.62;61.42;100731.66;4992036;28;124552;-72
2022/11/15 01:49:17;;;;;;;19.98;10.95;;;;;;;12.64;61.56;100728.91;4985193;28;115433;-73
2022/11/15 01:52:08;;;;;;;18.08;11.00;;;;;;;12.65;61.71;100731.47;5007722;28;114351;-72
2022/11/15 01:55:09;;;;;;;17.15;10.75;;;;;;;12.69;61.53;100728.66;4998783;28;124835;-73
2022/11/15 01:57:59;;;;;;;19.60;11.00;;;;;;;12.71;61.59;100729.41;4978194;28;124523;-72
2022/11/15 02:00:45;;;;;;;18.75;11.23;;;;;;;12.74;61.71;100726.59;5001694;28;114773;-73
2022/11/15 02:03:41;;;;;;;20.17;11.85;;;;;;;12.74;61.62;100724.78;4997140;28;114755;-73
2022/11/15 02:06:27;;;;;;;17.33;10.68;;;;;;;12.78;61.66;100728.13;4999277;28;124595;-72
2022/11/15 02:09:12;;;;;;;19.42;11.00;;;;;;;12.78;61.64;100721.00;5002907;28;124420;-73
2022/11/15 02:11:59;;;;;;;16.52;10.73;;;;;;;12.81;61.81;100720.00;5000328;28;115071;-72
2022/11/15 02:14:49;;;;;;;16.88;11.00;;;;;;;12.83;61.80;100718.13;5006069;28;114583;-73
2022/11/15 02:17:43;;;;;;;17.55;11.07;;;;;;;12.85;61.92;100721.53;4982924;28;124584;-72
2022/11/15 02:20:51;;;;;;;20.98;11.30;;;;;;;12.88;62.10;100716.03;5008670;28;124516;-73
2022/11/15 02:23:55;;;;;;;16.83;10.80;;;;;;;12.91;61.94;100710.56;5004959;28;115418;-72
2022/11/15 02:27:19;;;;;;;17.75;11.00;;;;;;;12.95;62.22;100711.22;5004575;28;114529;-72
2022/11/15 02:30:40;;;;;;;17.88;10.82;;;;;;;12.98;62.12;100698.63;5012534;28;124710;-73
2022/11/15 02:33:50;;;;;;;21.40;10.57;;;;;;;13.04;62.37;100700.91;4982871;28;124442;-73
2022/11/15 02:36:47;;;;;;;18.13;10.98;;;;;;;13.08;62.23;100695.44;5004197;28;115737;-73
2022/11/15 02:40:03;;;;;;;16.05;10.57;;;;;;;13.13;62.41;100688.03;5003595;28;115598;-72
2022/11/15 02:46:15;;;;;;;18.88;11.20;;;;;;;13.23;62.67;100690.06;5007414;28;124622;-72
2022/11/15 02:49:01;;;;;;;19.83;11.50;;;;;;;13.29;63.04;100694.19;5005527;28;115422;-72
2022/11/15 02:51:48;;;;;;;18.23;11.13;;;;;;;13.36;62.83;100695.56;5005552;27;114509;-73
2022/11/15 02:54:34;;;;;;;20.08;11.95;;;;;;;13.43;63.07;100694.25;5003104;28;125574;-72
2022/11/15 02:57:38;;;;;;;18.80;10.57;;;;;;;13.49;63.16;100695.69;5000659;28;124664;-72
2022/11/15 03:00:24;;;;;;;21.35;11.93;;;;;;;13.56;63.11;100685.53;4994551;28;114860;-73
2022/11/15 03:03:37;;;;;;;18.05;11.20;;;;;;;13.62;63.06;100680.72;5006174;28;114709;-72
2022/11/15 03:06:45;;;;;;;20.05;11.63;;;;;;;13.69;63.17;100678.50;4995582;28;125496;-72
2022/11/15 03:09:45;;;;;;;19.40;11.77;;;;;;;13.74;63.21;100679.09;5000695;28;125314;-73
2022/11/15 03:12:51;;;;;;;18.70;11.48;;;;;;;13.81;63.24;100669.78;4994708;28;114689;-73
2022/11/15 03:15:44;;;;;;;20.60;11.50;;;;;;;13.87;63.31;100667.72;4993441;28;115495;-73
2022/11/15 03:18:38;;;;;;;20.70;11.60;;;;;;;13.93;63.49;100672.66;4982105;28;124768;-72
2022/11/15 03:21:24;;;;;;;20.48;11.68;;;;;;;13.98;63.28;100670.56;4991481;28;125726;-73
2022/11/15 03:24:12;;;;;;;19.40;11.80;;;;;;;14.03;63.18;100668.44;5004030;28;114798;-72
2022/11/15 03:27:00;;;;;;;21.25;12.07;;;;;;;14.07;63.50;100670.00;5002882;28;115136;-72
2022/11/15 03:29:52;;;;;;;19.67;11.68;;;;;;;14.11;63.54;100671.50;5010175;28;126880;-73
2022/11/15 03:32:44;;;;;;;17.58;11.57;;;;;;;14.16;63.43;100669.38;4996356;28;124649;-73
2022/11/15 03:35:38;;;;;;;23.50;11.57;;;;;;;14.19;63.46;100669.22;5004697;28;115903;-73
2022/11/15 03:38:31;;;;;;;17.13;11.13;;;;;;;14.24;63.40;100670.72;4996767;28;115833;-73
2022/11/15 03:41:30;;;;;;;19.02;11.40;;;;;;;14.27;63.49;100670.53;4986854;28;124483;-72
2022/11/15 03:44:37;;;;;;;19.23;11.35;;;;;;;14.30;63.42;100675.69;5000650;28;125283;-73
2022/11/15 03:47:28;;;;;;;19.85;11.10;;;;;;;14.32;63.33;100674.63;5008199;28;115423;-73
2022/11/15 03:50:18;;;;;;;16.58;10.80;;;;;;;14.35;63.48;100673.56;5010391;28;114695;-73
2022/11/15 03:53:03;;;;;;;20.23;11.57;;;;;;;14.38;63.31;100678.72;4983550;28;124894;-73
2022/11/15 03:55:49;;;;;;;;;;;;;;;14.38;63.08;100668.91;4987475;28;124613;-73
2022/11/15 03:58:34;;;;;;;17.23;11.35;;;;;;;14.42;63.20;100666.91;4998948;28;115437;-73
2022/11/15 04:01:20;;;;;;;17.75;11.20;;;;;;;14.44;63.26;100672.97;5000485;28;114713;-73
2022/11/15 04:04:06;;;;;;;23.67;12.27;;;;;;;14.47;63.35;100675.47;4984154;28;124697;-73
2022/11/15 04:06:51;;;;;;;22.05;12.25;;;;;;;14.50;63.48;100683.22;4991014;28;124614;-73
2022/11/15 04:10:01;;;;;;;22.25;11.65;;;;;;;14.54;63.73;100674.13;5000913;28;115182;-73
2022/11/15 04:12:46;;;;;;;23.05;12.32;;;;;;;14.57;63.55;100676.59;5006542;28;114797;-73
2022/11/15 04:15:31;;;;;;;21.60;12.40;;;;;;;14.60;63.58;100673.75;4984018;28;124604;-72
2022/11/15 04:18:17;;;;;;;21.55;12.27;;;;;;;14.65;63.69;100669.91;5002826;28;124484;-73
2022/11/15 04:24:13;;;;;;;21.05;11.65;;;;;;;14.71;63.30;100669.50;4994814;28;114243;-73
2022/11/15 04:26:59;;;;;;;22.05;12.30;;;;;;;14.71;63.50;100669.50;4993491;28;124782;-73
2022/11/15 04:29:45;;;;;;;24.35;12.23;;;;;;;14.73;63.75;100668.47;5004156;28;124755;-73
2022/11/15 04:32:30;;;;;;;21.67;12.68;;;;;;;14.75;63.55;100676.38;4990564;28;115703;-73
2022/11/15 04:35:15;;;;;;;20.33;12.30;;;;;;;14.77;63.57;100674.47;4980261;28;115942;-73
2022/11/15 04:38:03;;;;;;;24.70;12.63;;;;;;;14.78;63.68;100681.50;5000705;28;124982;-73
2022/11/15 04:40:48;;;;;;;19.63;11.45;;;;;;;14.81;63.59;100683.13;4984887;28;124746;-73
2022/11/15 04:43:34;;;;;;;20.95;11.93;;;;;;;14.83;63.68;100679.38;4979784;28;114064;-73
2022/11/15 04:46:20;;;;;;;18.15;11.32;;;;;;;14.84;63.68;100675.75;5002490;28;112975;-73
2022/11/15 04:49:06;;;;;;;19.58;11.82;;;;;;;14.86;63.64;100671.19;5004285;28;125477;-73
2022/11/15 04:51:51;;;;;;;19.23;10.98;;;;;;;14.85;63.60;100672.13;5002586;28;124337;-72
2022/11/15 04:54:37;;;;;;;20.10;11.15;;;;;;;14.87;63.54;100670.22;5008642;28;114378;-73
2022/11/15 04:57:22;;;;;;;21.52;11.70;;;;;;;14.88;63.50;100666.63;5008336;28;114600;-73
2022/11/15 05:00:11;;;;;;;16.30;10.93;;;;;;;14.89;63.43;100668.31;5002938;28;125222;-73
2022/11/15 05:06:01;;;;;;;16.30;10.80;;;;;;;14.88;63.34;100666.63;4999709;28;114828;-73
2022/11/15 05:08:47;;;;;;;18.02;10.98;;;;;;;14.88;63.50;100655.94;5001009;28;114068;-74
2022/11/15 05:11:33;;;;;;;15.35;10.23;;;;;;;14.88;63.49;100666.63;4998113;28;124768;-73
2022/11/15 05:14:18;;;;;;;17.17;10.20;;;;;;;14.89;63.32;100670.13;4980294;28;125585;-72
2022/11/15 05:17:04;;;;;;;17.73;10.77;;;;;;;14.88;63.40;100655.94;4998335;28;114960;-73
2022/11/15 05:19:51;;;;;;;15.48;10.40;;;;;;;14.90;63.35;100664.69;5005500;28;114765;-72
2022/11/15 05:22:37;;;;;;;17.15;11.10;;;;;;;14.88;63.50;100666.63;5002044;28;124714;-73
2022/11/15 05:25:23;;;;;;;15.73;10.13;;;;;;;14.88;63.34;100666.63;4987972;28;125410;-73
2022/11/15 05:28:09;;;;;;;18.77;10.27;;;;;;;14.88;63.48;100669.28;5001438;28;115804;-73
2022/11/15 05:31:02;;;;;;;18.88;10.75;;;;;;;14.85;63.26;100666.81;5003586;28;116088;-73
2022/11/15 05:33:50;;;;;;;17.92;10.77;;;;;;;14.84;63.41;100662.41;4999988;28;124821;-73
2022/11/15 05:36:40;;;;;;;16.33;10.90;;;;;;;14.84;63.30;100665.06;5000838;28;124654;-73
2022/11/15 05:39:26;;;;;;;17.05;10.52;;;;;;;14.82;63.28;100661.66;4998434;28;115914;-73
2022/11/15 05:42:14;;;;;;;19.92;10.63;;;;;;;14.80;63.50;100658.25;5001386;28;114587;-73
2022/11/15 05:45:02;;;;;;;15.80;9.70;;;;;;;14.81;63.43;100654.63;5003802;28;125257;-73
2022/11/15 05:47:49;;;;;;;18.80;10.68;;;;;;;14.80;63.48;100655.59;4989323;28;125159;-73
2022/11/15 05:50:38;;;;;;;15.77;10.32;;;;;;;14.80;63.55;100652.91;5006874;28;115064;-74
2022/11/15 05:53:25;;;;;;;15.18;10.00;;;;;;;14.81;63.48;100659.97;5008981;28;114638;-73
2022/11/15 05:56:12;;;;;;;15.95;9.77;;;;;;;14.81;63.44;100654.63;5010008;28;125651;-72
2022/11/15 05:58:58;;;;;;;16.55;9.60;;;;;;;14.80;63.59;100652.91;5005261;28;124716;-73
2022/11/15 06:01:44;;;;;;;14.90;9.90;;;;;;;14.82;63.57;100660.81;5004011;28;114978;-73
2022/11/15 06:04:30;;;;;;;14.98;9.63;;;;;;;14.81;63.69;100659.97;5008638;28;114781;-73
2022/11/15 06:07:16;;;;;;;14.57;9.73;;;;;;;14.82;63.49;100664.31;5004672;28;125108;-73
2022/11/15 06:10:02;;;;;;;15.50;9.95;;;;;;;14.81;63.73;100665.31;5007975;28;124813;-73
2022/11/15 06:12:58;;;;;;;;;;;;;;;14.79;63.50;100667.22;5010404;28;114967;-73
2022/11/15 06:15:48;;;;;;;16.13;9.60;;;;;;;14.81;63.46;100665.31;4999420;28;114992;-74
2022/11/15 06:18:34;;;;;;;14.90;9.38;;;;;;;14.80;63.48;100663.56;5000936;28;124692;-74
2022/11/15 06:21:20;;;;;;;16.00;9.50;;;;;;;14.79;63.81;100660.06;5003025;28;124541;-74
2022/11/15 06:24:06;;;;;;;;;;;;;;;14.77;63.39;100659.31;5005204;28;115912;-75
2022/11/15 06:26:51;;;;;;;15.02;9.45;;;;;;;14.80;63.69;100663.56;5004666;28;115163;-74
2022/11/15 06:29:37;;;;;;;;;;;;;;;14.77;63.47;100664.66;5004802;28;124189;-74
2022/11/15 06:32:22;;;;;;;16.10;9.60;;;;;;;14.80;63.44;100663.56;4992677;28;124994;-74
2022/11/15 06:35:08;;;;;;;17.88;10.13;;;;;;;14.80;63.58;100663.56;4998324;28;115372;-74
2022/11/15 06:37:53;;;;;;;14.95;9.38;;;;;;;14.80;63.77;100674.25;4990045;28;114246;-74
2022/11/15 06:40:39;;;;;;;15.63;9.63;;;;;;;14.81;63.85;100673.31;5006349;28;124371;-74
2022/11/15 06:43:27;;;;;;;;;;;;;;;14.81;63.51;100677.78;4993286;28;125187;-74
2022/11/15 06:46:12;;;;;;;16.50;8.85;;;;;;;14.83;63.70;100679.38;5008621;28;115411;-74
2022/11/15 06:48:58;;;;;;;13.25;8.75;;;;;;;14.84;63.76;100681.09;5002543;28;114868;-75
2022/11/15 06:51:43;;;;;;;13.95;8.82;;;;;;;14.86;63.78;100689.88;4997748;28;125691;-75
2022/11/15 06:54:28;;;;;;;13.85;8.32;;;;;;;14.86;63.85;100684.53;5002092;28;127036;-75
2022/11/15 06:57:14;;;;;;;11.55;7.75;;;;;;;14.88;63.90;100693.28;4995857;28;114896;-75
2022/11/15 06:59:59;;;;;;;14.95;8.43;;;;;;;14.89;64.11;100700.31;5000050;28;114464;-75
2022/11/15 07:02:45;;;;;;;14.73;8.18;;;;;;;14.91;64.25;100703.72;4999243;28;125507;-75
2022/11/15 07:05:31;;;;;;;13.60;7.53;;;;;;;14.91;63.96;100694.88;4998360;28;124577;-75
2022/11/15 07:08:17;;;;;;;12.80;8.02;;;;;;;14.93;63.96;100701.81;5000361;28;114959;-75
2022/11/15 07:11:05;;;;;;;13.15;7.65;;;;;;;14.92;64.03;100700.13;5000410;28;114531;-75
2022/11/15 07:13:50;;;;;;;12.48;7.35;;;;;;;14.92;64.04;100700.13;5000489;28;123943;-75
2022/11/15 07:16:36;;;;;;;11.93;7.60;;;;;;;14.93;64.33;100704.47;5000696;28;124668;-75
2022/11/15 07:19:22;;;;;;;10.27;6.93;;;;;;;14.93;63.96;100707.16;4998797;28;115692;-75
2022/11/15 07:22:07;;;;;;;15.73;6.85;;;;;;;14.93;64.11;100699.16;5003207;28;117872;-75
2022/11/15 07:24:53;;;;;;;12.57;6.50;;;;;;;14.94;64.17;100703.53;5000619;28;124796;-75
2022/11/15 07:27:39;;;;;;;11.90;6.82;;;;;;;14.96;64.00;100706.94;5001251;28;125201;-76
2022/11/15 07:30:25;;;;;;;14.80;6.40;;;;;;;14.97;63.93;100708.69;5003985;28;115079;-75
2022/11/15 07:33:11;;;;;;;13.85;6.55;;;;;;;14.97;63.99;100702.47;5003755;28;115618;-75
2022/11/15 07:36:04;;;;;;;8.93;6.25;;;;;;;14.98;63.86;100710.38;5001521;28;124928;-75
2022/11/15 07:38:50;;;;;;;9.75;5.90;;;;;;;14.99;63.87;100722.78;5002697;28;124309;-75
2022/11/15 07:41:35;;;;;;;10.10;6.35;;;;;;;14.99;64.12;100717.44;5003851;28;114805;-75
2022/11/15 07:44:21;;;;;;;9.13;5.78;;;;;;;14.99;64.05;100722.78;4999327;28;115271;-75
2022/11/15 07:47:07;;;;;;;9.90;5.97;;;;;;;14.99;64.04;100728.09;4993522;28;125548;-75
2022/11/15 07:49:53;;;;;;;11.10;6.45;;;;;;;15.01;64.06;100724.47;5000334;28;127008;-75
2022/11/15 07:52:38;;;;;;;10.70;6.55;;;;;;;14.99;63.94;100722.78;4999864;28;114782;-74
2022/11/15 07:55:25;;;;;;;;;;;;;;;14.97;63.74;100714.00;5004163;28;114663;-74
2022/11/15 07:58:11;;;;;;;9.32;6.00;;;;;;;14.99;63.74;100717.44;5000389;28;125604;-75
2022/11/15 08:00:57;;;;;;;12.00;6.07;;;;;;;14.99;63.85;100706.75;4996565;28;125728;-75
2022/11/15 08:03:43;;;;;;;10.23;6.72;;;;;;;14.99;63.89;100712.09;4998964;28;115968;-75
2022/11/15 08:06:28;;;;;;;10.90;6.53;;;;;;;15.01;64.09;100711.13;4991608;28;114639;-75
2022/11/15 08:09:14;;;;;;;14.10;6.75;;;;;;;14.99;63.98;100717.44;4995940;28;124779;-75
2022/11/15 08:11:59;;;;;;;12.88;7.20;;;;;;;15.00;64.02;100715.63;4978626;28;124557;-75
2022/11/15 08:14:45;;;;;;;11.35;5.93;;;;;;;14.99;63.83;100712.09;4996629;28;115859;-75
2022/11/15 08:17:32;;;;;;;10.13;6.15;;;;;;;14.97;63.79;100713.13;4999696;28;115562;-75
2022/11/15 08:20:19;;;;;;;11.25;6.10;;;;;;;14.95;63.86;100715.91;4999227;28;124626;-75
2022/11/15 08:23:06;;;;;;;11.73;6.40;;;;;;;14.94;63.81;100703.53;4993065;28;124957;-75
2022/11/15 08:25:51;;;;;;;9.13;6.07;;;;;;;14.94;64.00;100711.53;5007487;28;114640;-75
2022/11/15 08:28:37;;;;;;;9.65;6.00;;;;;;;14.94;63.80;100708.88;4997370;28;114495;-75
2022/11/15 08:31:23;;;;;;;9.73;6.07;;;;;;;14.94;63.82;100719.53;5000418;28;124995;-75
2022/11/15 08:34:08;;;;;;;7.82;5.60;;;;;;;14.95;63.81;100721.22;5000461;28;124438;-75
2022/11/15 08:36:53;;;;;;;9.43;6.00;;;;;;;14.96;63.79;100717.63;5004150;28;114827;-75
2022/11/15 08:39:39;;;;;;;14.15;5.57;;;;;;;14.95;63.85;100715.91;4993326;28;114646;-75
2022/11/15 08:42:24;;;;;;;8.88;5.43;;;;;;;14.94;63.71;100716.88;5001462;28;124677;-76
2022/11/15 08:45:10;;;;;;;9.82;5.57;;;;;;;14.93;63.83;100711.63;5008951;28;125131;-75
2022/11/15 08:47:57;;;;;;;8.70;5.38;;;;;;;14.93;63.72;100711.63;5001940;28;97433;-75
2022/11/15 08:50:43;;;;;;;;;;;;;;;14.90;63.56;100718.03;4985709;28;114538;-75
2022/11/15 08:53:29;;;;;;;8.27;5.25;;;;;;;14.91;63.66;100719.72;4989891;28;125513;-75
2022/11/15 08:56:14;;;;;;;;;;;;;;;14.89;63.51;100713.63;4998282;28;125335;-74
2022/11/15 08:59:00;;;;;;;8.57;4.95;;;;;;;14.91;63.41;100703.72;4997895;28;114942;-74
2022/11/15 09:01:45;;;;;;;8.00;5.35;;;;;;;14.90;63.60;100702.03;4991854;28;114466;-75
2022/11/15 09:04:32;;;;;;;7.68;5.00;;;;;;;14.89;63.55;100700.31;5004487;28;124846;-75
2022/11/15 09:07:17;;;;;;;;;;;;;;;14.87;63.45;100696.88;5002659;28;124444;-74
2022/11/15 09:10:03;;;;;;;9.32;5.28;;;;;;;14.90;63.60;100690.47;4998062;28;115471;-75
2022/11/15 09:12:48;;;;;;;7.22;5.20;;;;;;;14.90;63.66;100691.38;5000912;28;116010;-74
2022/11/15 09:15:34;;;;;;;7.70;4.93;;;;;;;14.92;63.56;100689.44;4998287;28;124936;-75
2022/11/15 09:18:22;;;;;;;8.63;5.10;;;;;;;14.93;63.21;100691.16;5003501;28;124643;-75
2022/11/15 09:21:09;;;;;;;10.27;4.95;;;;;;;14.95;63.60;100689.22;4985228;28;114948;-74
2022/11/15 09:23:54;;;;;;;8.05;4.80;;;;;;;14.97;63.53;100682.00;5004429;28;115945;-75
2022/11/15 09:26:40;;;;;;;6.97;4.40;;;;;;;14.99;63.42;100685.44;5003746;28;124758;-75
2022/11/15 09:29:26;;;;;;;9.15;4.65;;;;;;;15.01;63.26;100676.44;5007460;28;124772;-74
2022/11/15 09:32:11;;;;;;;;;;;;;;;14.97;63.34;100676.69;4998179;28;114651;-74
2022/11/15 09:34:57;;;;;;;5.80;3.90;;;;;;;15.02;63.36;100675.50;5004440;28;114714;-75
2022/11/15 09:37:43;;;;;;;8.70;3.83;;;;;;;15.02;63.46;100668.34;4986961;28;124562;-74
2022/11/15 09:40:30;;;;;;;5.13;3.60;;;;;;;15.05;63.44;100667.28;4999451;28;124398;-75
2022/11/15 09:43:32;;;;;;;10.10;3.88;;;;;;;15.05;63.54;100661.94;5001672;28;114378;-74
2022/11/15 09:46:32;;;;;;;9.27;3.97;;;;;;;15.07;63.35;100657.38;4984690;28;114442;-74
2022/11/15 09:49:18;;;;;;;4.47;3.00;;;;;;;15.09;63.36;100652.81;4989418;28;124800;-75
2022/11/15 09:52:10;;;;;;;11.07;3.22;;;;;;;15.11;63.10;100650.91;4986353;28;123126;-75
2022/11/15 09:54:38;;;;;;;5.82;3.15;;;;;;;15.13;63.15;100654.31;4982372;28;113991;-75
2022/11/15 09:57:31;;;;;;;4.70;2.70;;;;;;;15.16;63.25;100659.41;4989542;28;113734;-74
2022/11/15 10:00:10;;;;;;;5.00;2.67;;;;;;;15.18;62.78;100653.03;4989462;28;124354;-74
2022/11/15 10:03:08;;;;;;;4.57;2.30;;;;;;;15.21;62.52;100646.63;5004043;28;123917;-74
2022/11/15 10:05:42;;;;;;;4.45;2.10;;;;;;;15.23;62.49;100644.72;4994410;28;115261;-73
2022/11/15 10:08:37;;;;;;;6.60;2.70;;;;;;;15.23;62.49;100652.72;4987716;28;114766;-74
2022/11/15 10:11:10;;;;;;;4.60;2.30;;;;;;;15.27;62.31;100648.03;4995548;28;123581;-74
2022/11/15 10:14:02;;;;;;;5.78;2.00;;;;;;;15.29;62.12;100644.28;4998442;28;123510;-74
2022/11/15 10:16:48;;;;;;;4.38;1.80;;;;;;;15.35;61.88;100641.22;5002312;28;112928;-74
2022/11/15 10:19:25;;;;;;;5.65;1.63;;;;;;;15.37;61.64;100633.13;4984856;28;113887;-74
2022/11/15 10:22:17;;;;;;;3.53;1.48;;;;;;;15.38;61.41;100633.00;4991732;28;124909;-74
2022/11/15 10:24:46;;;;;;;2.78;1.50;;;;;;;15.38;61.16;100638.31;4976427;28;123892;-74
2022/11/15 10:27:18;;;;;;;3.55;1.42;;;;;;;15.41;60.80;100631.06;4990751;28;114395;-75
2022/11/15 10:29:48;;;;;;;3.15;1.58;;;;;;;15.43;60.70;100629.19;5004237;28;113893;-75
2022/11/15 10:32:20;;;;;;;2.75;1.58;;;;;;;15.46;60.48;100618.28;5001463;28;124018;-74
2022/11/15 10:34:50;;;;;;;5.47;1.83;;;;;;;15.48;60.19;100619.00;5004157;28;124036;-74
2022/11/15 10:37:31;;;;;;;2.30;1.30;;;;;;;15.49;59.93;100612.72;5002795;28;114525;-74
2022/11/15 10:40:17;;;;;;;2.53;1.20;;;;;;;15.52;59.94;100612.50;5003396;28;113744;-74
2022/11/15 10:42:45;;;;;;;3.88;1.40;;;;;;;15.55;60.01;100612.28;4996965;28;123666;-75
2022/11/15 10:45:25;;;;;;;4.68;1.60;;;;;;;15.58;59.47;100604.09;4986305;28;123741;-73
2022/11/15 10:47:52;;;;;;;4.03;1.45;;;;;;;15.61;59.24;100601.19;4987522;28;113996;-74
2022/11/15 10:50:31;;;;;;;4.13;1.40;;;;;;;15.63;59.00;100604.59;4993288;28;112461;-74
2022/11/15 10:53:02;;;;;;;3.05;1.20;;;;;;;15.67;58.86;100595.44;4996130;28;123771;-74
2022/11/15 10:55:33;;;;;;;4.72;1.40;;;;;;;15.70;58.46;100594.34;4992231;28;123811;-73
2022/11/15 10:58:32;;;;;;;2.85;1.27;;;;;;;15.73;58.37;100579.00;4996933;28;114403;-73
2022/11/15 11:01:15;;;;;;;4.18;1.23;;;;;;;15.76;58.24;100578.78;5009210;28;115087;-74
2022/11/15 11:03:44;;;;;;;6.55;1.50;;;;;;;15.79;58.13;100582.22;4995644;28;124551;-73
2022/11/15 11:06:17;;;;;;;3.38;1.20;;;;;;;15.82;58.11;100581.97;5003148;28;123889;-73
2022/11/15 11:08:59;;;;;;;3.20;1.35;;;;;;;15.86;57.99;100583.44;4992895;28;113293;-73
2022/11/15 11:11:47;;;;;;;3.28;1.55;;;;;;;15.89;58.07;100583.25;5001949;28;113722;-73
2022/11/15 11:14:31;;;;;;;5.10;1.48;;;;;;;15.90;57.87;100574.28;4969792;28;123521;-73
2022/11/15 11:17:20;;;;;;;3.92;1.48;;;;;;;15.93;57.71;100566.03;4995923;28;124030;-74
2022/11/15 11:20:08;;;;;;;3.45;1.50;;;;;;;15.94;57.61;100570.41;4992968;28;114004;-73
2022/11/15 11:23:03;;;;;;;2.70;1.40;;;;;;;15.96;57.63;100563.16;4999296;28;113619;-74
2022/11/15 11:25:47;;;;;;;4.78;1.70;;;;;;;15.99;57.50;100564.72;4982824;28;123951;-72
2022/11/15 11:28:20;;;;;;;2.10;1.30;;;;;;;16.02;57.44;100557.34;5004944;28;124618;-72
2022/11/15 11:31:06;;;;;;;3.90;1.48;;;;;;;16.05;57.30;100562.50;4986019;28;113625;-73
2022/11/15 11:33:56;;;;;;;3.72;1.60;;;;;;;16.11;57.16;100567.38;4996300;28;113368;-72
2022/11/15 11:36:35;;;;;;;4.07;1.30;;;;;;;16.15;57.08;100558.16;5004953;28;124136;-72
2022/11/15 11:39:19;;;;;;;2.80;1.35;;;;;;;16.20;56.88;100548.94;5000200;28;124930;-72
2022/11/15 11:42:17;;;;;;;4.72;1.30;;;;;;;16.21;56.61;100545.34;5005306;28;114677;-72
2022/11/15 11:45:09;;;;;;;3.47;1.20;;;;;;;16.20;56.25;100548.94;4980137;28;113063;-72
2022/11/15 11:47:46;;;;;;;4.22;1.17;;;;;;;16.19;56.20;100536.56;5005014;28;124224;-72
2022/11/15 11:50:18;;;;;;;3.08;1.05;;;;;;;16.18;56.16;100529.50;4987334;28;123497;-74
2022/11/15 11:53:01;;;;;;;3.28;1.05;;;;;;;16.18;55.87;100524.16;4995118;28;115174;-72
2022/11/15 11:55:41;;;;;;;3.75;1.10;;;;;;;16.19;55.75;100515.19;5002445;28;114588;-73
2022/11/15 11:58:19;;;;;;;2.97;0.90;;;;;;;16.18;55.40;100497.44;4995964;28;124117;-72
2022/11/15 12:00:51;;;;;;;4.28;1.00;;;;;;;16.19;55.27;100504.50;5005350;28;123607;-73
2022/11/15 12:03:41;;;;;;;1.98;1.00;;;;;;;16.18;55.23;100502.78;5000090;28;114441;-72
2022/11/15 12:06:23;;;;;;;2.90;0.85;;;;;;;16.20;55.25;100496.38;5002096;28;113895;-72
2022/11/15 12:09:01;;;;;;;5.15;1.10;;;;;;;16.21;55.30;100486.53;5004550;28;124181;-72
2022/11/15 12:11:37;;;;;;;3.35;1.05;;;;;;;16.24;55.34;100497.00;5001413;28;124771;-72
2022/11/15 12:14:12;;;;;;;3.50;1.58;;;;;;;16.28;55.30;100487.78;4987264;28;114808;-72
2022/11/15 12:16:42;;;;;;;2.17;1.20;;;;;;;16.35;55.20;100494.41;5001526;28;114244;-72
2022/11/15 12:19:09;;;;;;;5.57;1.27;;;;;;;16.40;55.20;100476.16;5003558;28;124034;-72
2022/11/15 12:21:48;;;;;;;4.47;1.15;;;;;;;16.47;54.90;100465.88;4984479;28;123232;-72
2022/11/15 12:24:26;;;;;;;3.05;1.20;;;;;;;16.50;54.72;100461.16;4983411;28;113784;-72
2022/11/15 12:26:56;;;;;;;4.20;1.60;;;;;;;16.57;54.77;100460.69;5006533;28;113932;-72
2022/11/15 12:29:38;;;;;;;5.55;1.00;;;;;;;16.60;54.38;100455.09;4987047;28;123081;-72
2022/11/15 12:32:31;;;;;;;3.55;1.45;;;;;;;16.64;54.38;100440.53;4997516;28;124037;-72
2022/11/15 12:35:00;;;;;;;2.67;1.10;;;;;;;16.70;54.21;100445.41;4991845;28;113769;-72
2022/11/15 12:37:37;;;;;;;4.70;1.10;;;;;;;16.74;54.34;100444.19;5000421;28;113656;-74
2022/11/15 12:40:23;;;;;;;4.72;1.40;;;;;;;16.77;53.93;100437.75;4974474;28;123024;-73
2022/11/15 12:43:13;;;;;;;3.55;0.90;;;;;;;16.78;53.77;100437.63;5000806;28;123962;-72
2022/11/15 12:45:43;;;;;;;3.65;1.52;;;;;;;16.80;53.69;100425.00;5001306;28;115854;-73
2022/11/15 12:48:16;;;;;;;3.70;1.10;;;;;;;16.82;53.61;100417.75;5000510;28;114892;-73